Time,TemperatureF,DewpointF,PressureIn,WindDirection,WindDirectionDegrees,WindSpeedMPH,WindSpeedGustMPH,Humidity,HourlyPrecipIn,Conditions,Clouds,dailyrainin,SoftwareType,DateUTC
2013-08-31 00:00:00,71.9,67.8,30.01,WNW,287,0.0,0.0,87,0.00,,,0.00,Wunderground v.1.15,2013-08-31 04:00:00,
2013-08-31 00:02:00,71.8,67.7,30.01,WNW,287,0.0,0.0,87,0.00,,,0.00,Wunderground v.1.15,2013-08-31 04:02:00,
2013-08-31 00:04:00,71.8,68.1,30.01,WNW,287,0.0,0.0,88,0.00,,,0.00,Wunderground v.1.15,2013-08-31 04:04:00,
2013-08-31 00:06:00,71.7,68.0,30.01,WNW,287,0.0,0.0,88,0.00,,,0.00,Wunderground v.1.15,2013-08-31 04:06:00,
2013-08-31 00:12:00,71.5,67.8,30.01,WNW,287,0.0,0.0,88,0.00,,,0.00,Wunderground v.1.15,2013-08-31 04:12:00,
2013-08-31 00:18:00,71.4,67.7,30.01,WNW,287,0.0,0.0,88,0.00,,,0.00,Wunderground v.1.15,2013-08-31 04:18:00,
2013-08-31 00:24:00,71.3,67.6,30.01,WNW,287,0.0,0.0,88,0.00,,,0.00,Wunderground v.1.15,2013-08-31 04:24:00,
2013-08-31 00:30:00,71.2,67.5,30.01,WNW,287,0.0,0.0,88,0.00,,,0.00,Wunderground v.1.15,2013-08-31 04:30:00,
2013-08-31 00:36:00,71.1,67.7,30.01,WNW,287,0.0,2.0,89,0.00,,,0.00,Wunderground v.1.15,2013-08-31 04:36:00,
2013-08-31 00:42:00,70.9,67.5,30.01,WNW,287,0.0,2.0,89,0.00,,,0.00,Wunderground v.1.15,2013-08-31 04:42:00,
2013-08-31 00:48:00,70.7,67.3,30.01,WNW,287,0.0,2.0,89,0.00,,,0.00,Wunderground v.1.15,2013-08-31 04:48:00,
2013-08-31 00:54:00,70.5,67.4,30.01,WNW,287,0.0,2.0,90,0.00,,,0.00,Wunderground v.1.15,2013-08-31 04:54:00,
2013-08-31 01:00:00,70.3,67.2,30.01,WNW,287,0.0,2.0,90,0.00,,,0.00,Wunderground v.1.15,2013-08-31 05:00:00,
2013-08-31 01:06:00,70.2,67.1,30.01,WNW,287,0.0,2.0,90,0.00,,,0.00,Wunderground v.1.15,2013-08-31 05:06:00,
2013-08-31 01:12:00,70.0,66.9,30.01,WNW,287,0.0,2.0,90,0.00,,,0.00,Wunderground v.1.15,2013-08-31 05:12:00,
2013-08-31 01:18:00,69.8,67.1,30.00,WNW,287,0.0,2.0,91,0.00,,,0.00,Wunderground v.1.15,2013-08-31 05:18:00,
2013-08-31 01:24:00,69.7,67.0,30.00,WNW,287,0.0,2.0,91,0.00,,,0.00,Wunderground v.1.15,2013-08-31 05:24:00,
2013-08-31 01:30:00,69.5,66.8,30.00,WNW,287,0.0,2.0,91,0.00,,,0.00,Wunderground v.1.15,2013-08-31 05:30:00,
2013-08-31 01:36:00,69.3,66.6,30.00,WNW,287,0.0,2.0,91,0.00,,,0.00,Wunderground v.1.15,2013-08-31 05:36:00,
2013-08-31 01:42:00,69.2,66.5,30.00,WNW,287,0.0,2.0,91,0.00,,,0.00,Wunderground v.1.15,2013-08-31 05:42:00,
2013-08-31 01:48:00,69.1,66.4,30.00,WNW,287,0.0,2.0,91,0.00,,,0.00,Wunderground v.1.15,2013-08-31 05:48:00,
2013-08-31 01:54:00,69.0,66.3,30.00,WNW,287,0.0,2.0,91,0.00,,,0.00,Wunderground v.1.15,2013-08-31 05:54:00,
2013-08-31 02:00:00,68.9,66.2,30.00,WNW,287,0.0,2.0,91,0.00,,,0.00,Wunderground v.1.15,2013-08-31 06:00:00,
2013-08-31 02:06:00,68.8,66.4,30.00,WNW,287,0.0,2.0,92,0.00,,,0.00,Wunderground v.1.15,2013-08-31 06:06:00,
2013-08-31 02:12:00,68.6,66.2,30.00,WNW,287,0.0,2.0,92,0.00,,,0.00,Wunderground v.1.15,2013-08-31 06:12:00,
2013-08-31 02:18:00,68.6,66.2,30.00,WNW,287,0.0,2.0,92,0.00,,,0.00,Wunderground v.1.15,2013-08-31 06:18:00,
2013-08-31 02:24:00,68.5,66.1,30.00,WNW,287,0.0,2.0,92,0.00,,,0.00,Wunderground v.1.15,2013-08-31 06:24:00,
2013-08-31 02:30:00,68.4,66.0,29.99,WNW,287,0.0,2.0,92,0.00,,,0.00,Wunderground v.1.15,2013-08-31 06:30:00,
2013-08-31 02:36:00,68.3,65.9,29.99,WNW,287,0.0,2.0,92,0.00,,,0.00,Wunderground v.1.15,2013-08-31 06:36:00,
2013-08-31 02:42:00,68.3,65.9,29.99,WNW,287,0.0,2.0,92,0.00,,,0.00,Wunderground v.1.15,2013-08-31 06:42:00,
2013-08-31 02:48:00,68.3,65.9,29.99,WNW,287,0.0,2.0,92,0.00,,,0.00,Wunderground v.1.15,2013-08-31 06:48:00,
2013-08-31 02:54:00,68.2,65.8,30.00,WNW,287,0.0,2.0,92,0.00,,,0.00,Wunderground v.1.15,2013-08-31 06:54:00,
2013-08-31 03:00:00,68.2,65.8,29.99,WNW,287,0.0,2.0,92,0.00,,,0.00,Wunderground v.1.15,2013-08-31 07:00:00,
2013-08-31 03:06:00,68.1,65.7,29.99,WNW,287,0.0,2.0,92,0.00,,,0.00,Wunderground v.1.15,2013-08-31 07:06:00,
2013-08-31 03:12:00,68.1,65.7,29.99,WNW,287,0.0,2.0,92,0.00,,,0.00,Wunderground v.1.15,2013-08-31 07:12:00,
2013-08-31 03:18:00,68.1,65.7,29.99,WNW,287,0.0,2.0,92,0.00,,,0.00,Wunderground v.1.15,2013-08-31 07:18:00,
2013-08-31 03:24:00,68.1,65.7,29.99,WNW,287,0.0,2.0,92,0.00,,,0.00,Wunderground v.1.15,2013-08-31 07:24:00,
2013-08-31 03:30:00,68.1,65.7,29.99,WNW,287,0.0,2.0,92,0.00,,,0.00,Wunderground v.1.15,2013-08-31 07:30:00,
2013-08-31 03:36:00,68.0,65.6,30.00,WNW,287,0.0,2.0,92,0.00,,,0.00,Wunderground v.1.15,2013-08-31 07:36:00,
2013-08-31 03:42:00,68.0,65.6,29.99,WNW,287,0.0,2.0,92,0.00,,,0.00,Wunderground v.1.15,2013-08-31 07:42:00,
2013-08-31 03:48:00,67.9,65.5,29.99,WNW,287,0.0,2.0,92,0.00,,,0.01,Wunderground v.1.15,2013-08-31 07:48:00,
2013-08-31 03:54:00,67.9,65.5,29.99,WNW,287,0.0,2.0,92,0.00,,,0.01,Wunderground v.1.15,2013-08-31 07:54:00,
2013-08-31 04:00:00,67.8,65.4,29.99,WNW,287,0.0,2.0,92,0.00,,,0.01,Wunderground v.1.15,2013-08-31 08:00:00,
2013-08-31 04:06:00,67.7,65.3,29.99,WNW,287,0.0,2.0,92,0.00,,,0.01,Wunderground v.1.15,2013-08-31 08:06:00,
2013-08-31 04:12:00,67.7,65.3,29.99,WNW,287,0.0,2.0,92,0.00,,,0.01,Wunderground v.1.15,2013-08-31 08:12:00,
2013-08-31 04:18:00,67.7,65.3,29.99,WNW,287,0.0,2.0,92,0.00,,,0.01,Wunderground v.1.15,2013-08-31 08:18:00,
2013-08-31 04:24:00,67.7,65.3,29.99,WNW,287,0.0,2.0,92,0.00,,,0.01,Wunderground v.1.15,2013-08-31 08:24:00,
2013-08-31 04:30:00,67.6,65.2,29.99,WNW,287,0.0,2.0,92,0.00,,,0.01,Wunderground v.1.15,2013-08-31 08:30:00,
2013-08-31 04:36:00,67.6,65.2,29.99,WNW,287,0.0,2.0,92,0.00,,,0.01,Wunderground v.1.15,2013-08-31 08:36:00,
2013-08-31 04:42:00,67.6,65.2,29.99,WNW,287,0.0,2.0,92,0.00,,,0.01,Wunderground v.1.15,2013-08-31 08:42:00,
2013-08-31 04:48:00,67.6,65.2,29.98,WNW,287,0.0,2.0,92,0.00,,,0.01,Wunderground v.1.15,2013-08-31 08:48:00,
2013-08-31 04:54:00,67.6,65.2,29.99,WNW,287,0.0,2.0,92,0.00,,,0.01,Wunderground v.1.15,2013-08-31 08:54:00,
2013-08-31 05:00:00,67.6,65.2,29.98,WNW,287,0.0,2.0,92,0.00,,,0.01,Wunderground v.1.15,2013-08-31 09:00:00,
2013-08-31 05:06:00,67.6,65.2,29.99,WNW,287,0.0,2.0,92,0.00,,,0.01,Wunderground v.1.15,2013-08-31 09:06:00,
2013-08-31 05:12:00,67.6,65.2,29.99,WNW,287,0.0,2.0,92,0.00,,,0.01,Wunderground v.1.15,2013-08-31 09:12:00,
2013-08-31 05:18:00,67.6,65.2,29.98,WNW,287,0.0,2.0,92,0.00,,,0.01,Wunderground v.1.15,2013-08-31 09:18:00,
2013-08-31 05:24:00,67.6,65.2,29.99,WNW,287,0.0,2.0,92,0.00,,,0.01,Wunderground v.1.15,2013-08-31 09:24:00,
2013-08-31 05:30:00,67.6,65.2,29.99,WNW,287,0.0,2.0,92,0.00,,,0.01,Wunderground v.1.15,2013-08-31 09:30:00,
2013-08-31 05:36:00,67.7,65.3,29.99,WNW,287,0.0,2.0,92,0.00,,,0.01,Wunderground v.1.15,2013-08-31 09:36:00,
2013-08-31 05:42:00,67.7,65.3,29.99,WNW,287,0.0,2.0,92,0.00,,,0.01,Wunderground v.1.15,2013-08-31 09:42:00,
2013-08-31 05:48:00,67.9,65.5,29.99,WNW,287,0.0,2.0,92,0.00,,,0.01,Wunderground v.1.15,2013-08-31 09:48:00,
2013-08-31 05:54:00,67.9,65.5,29.99,WNW,287,0.0,2.0,92,0.00,,,0.01,Wunderground v.1.15,2013-08-31 09:54:00,
2013-08-31 06:00:00,67.9,65.5,29.99,WNW,287,0.0,2.0,92,0.00,,,0.01,Wunderground v.1.15,2013-08-31 10:00:00,
2013-08-31 06:06:00,67.8,65.4,29.99,WNW,287,0.0,2.0,92,0.00,,,0.01,Wunderground v.1.15,2013-08-31 10:06:00,
2013-08-31 06:12:00,67.9,65.5,29.99,WNW,287,0.0,2.0,92,0.00,,,0.01,Wunderground v.1.15,2013-08-31 10:12:00,
2013-08-31 06:18:00,67.8,65.4,29.99,WNW,287,0.0,2.0,92,0.00,,,0.01,Wunderground v.1.15,2013-08-31 10:18:00,
2013-08-31 06:24:00,67.9,65.5,29.99,WNW,287,0.0,2.0,92,0.00,,,0.01,Wunderground v.1.15,2013-08-31 10:24:00,
2013-08-31 06:30:00,68.0,65.6,29.99,WNW,287,0.0,2.0,92,0.00,,,0.01,Wunderground v.1.15,2013-08-31 10:30:00,
2013-08-31 06:36:00,68.0,65.6,29.99,WNW,287,0.0,2.0,92,0.00,,,0.01,Wunderground v.1.15,2013-08-31 10:36:00,
2013-08-31 06:42:00,68.1,65.7,29.99,WNW,287,0.0,2.0,92,0.00,,,0.01,Wunderground v.1.15,2013-08-31 10:42:00,
2013-08-31 06:48:00,68.1,65.7,29.99,WNW,287,0.0,2.0,92,0.00,,,0.01,Wunderground v.1.15,2013-08-31 10:48:00,
2013-08-31 06:54:00,68.2,65.8,29.99,WNW,287,0.0,2.0,92,0.00,,,0.01,Wunderground v.1.15,2013-08-31 10:54:00,
2013-08-31 07:00:00,68.2,65.8,29.99,WNW,287,0.0,2.0,92,0.00,,,0.01,Wunderground v.1.15,2013-08-31 11:00:00,
2013-08-31 07:06:00,68.3,65.9,29.99,WNW,287,0.0,2.0,92,0.00,,,0.01,Wunderground v.1.15,2013-08-31 11:06:00,
2013-08-31 07:12:00,68.4,66.0,29.99,WNW,287,0.0,2.0,92,0.00,,,0.01,Wunderground v.1.15,2013-08-31 11:12:00,
2013-08-31 07:18:00,68.5,66.1,29.99,WNW,287,0.0,2.0,92,0.00,,,0.01,Wunderground v.1.15,2013-08-31 11:18:00,
2013-08-31 07:24:00,68.6,66.2,29.99,WNW,287,0.0,2.0,92,0.00,,,0.01,Wunderground v.1.15,2013-08-31 11:24:00,
2013-08-31 07:30:00,68.8,66.4,29.99,WNW,287,0.0,2.0,92,0.00,,,0.01,Wunderground v.1.15,2013-08-31 11:30:00,
2013-08-31 07:36:00,68.9,66.5,30.00,WNW,287,0.0,2.0,92,0.00,,,0.01,Wunderground v.1.15,2013-08-31 11:36:00,
2013-08-31 07:42:00,69.2,66.8,30.00,WNW,287,0.0,2.0,92,0.00,,,0.01,Wunderground v.1.15,2013-08-31 11:42:00,
2013-08-31 07:48:00,69.6,67.5,30.00,WNW,287,0.0,2.0,93,0.00,,,0.01,Wunderground v.1.15,2013-08-31 11:48:00,
2013-08-31 07:54:00,69.9,67.5,30.00,WNW,287,0.0,2.0,92,0.00,,,0.01,Wunderground v.1.15,2013-08-31 11:54:00,
2013-08-31 08:00:00,70.2,68.1,30.00,WNW,287,0.0,2.0,93,0.00,,,0.01,Wunderground v.1.15,2013-08-31 12:00:00,
2013-08-31 08:06:00,70.4,68.0,30.00,WNW,287,0.0,2.0,92,0.00,,,0.01,Wunderground v.1.15,2013-08-31 12:06:00,
2013-08-31 08:12:00,70.7,68.3,30.00,WNW,287,0.0,2.0,92,0.00,,,0.01,Wunderground v.1.15,2013-08-31 12:12:00,
2013-08-31 08:18:00,71.1,68.7,30.00,WNW,288,0.0,2.0,92,0.00,,,0.01,Wunderground v.1.15,2013-08-31 12:18:00,
2013-08-31 08:24:00,71.5,69.4,30.00,WNW,289,0.0,2.0,93,0.00,,,0.01,Wunderground v.1.15,2013-08-31 12:24:00,
2013-08-31 08:30:00,72.0,69.5,30.00,WNW,289,0.0,2.0,92,0.00,,,0.01,Wunderground v.1.15,2013-08-31 12:30:00,
2013-08-31 08:36:00,72.6,70.1,30.00,WNW,289,0.0,2.0,92,0.00,,,0.01,Wunderground v.1.15,2013-08-31 12:36:00,
2013-08-31 08:42:00,73.1,70.6,30.00,NW,321,0.0,2.0,92,0.00,,,0.01,Wunderground v.1.15,2013-08-31 12:42:00,
2013-08-31 08:48:00,73.7,71.2,30.00,WNW,283,1.0,2.0,92,0.00,,,0.01,Wunderground v.1.15,2013-08-31 12:48:00,
2013-08-31 08:54:00,74.3,71.5,30.01,WNW,283,0.0,2.0,91,0.00,,,0.01,Wunderground v.1.15,2013-08-31 12:54:00,
2013-08-31 09:00:00,74.9,72.1,30.01,NNW,339,0.0,2.0,91,0.00,,,0.01,Wunderground v.1.15,2013-08-31 13:00:00,
2013-08-31 09:06:00,75.5,72.7,30.01,North,350,0.0,2.0,91,0.00,,,0.01,Wunderground v.1.15,2013-08-31 13:06:00,
2013-08-31 09:12:00,76.2,73.1,30.01,WNW,283,0.0,2.0,90,0.00,,,0.01,Wunderground v.1.15,2013-08-31 13:12:00,
2013-08-31 09:18:00,77.0,73.8,30.01,WNW,285,0.0,2.0,90,0.00,,,0.01,Wunderground v.1.15,2013-08-31 13:18:00,
2013-08-31 09:24:00,77.6,73.4,30.00,NW,307,1.0,2.0,87,0.00,,,0.01,Wunderground v.1.15,2013-08-31 13:24:00,
2013-08-31 09:30:00,78.2,74.4,30.00,NW,313,1.0,1.0,88,0.00,,,0.01,Wunderground v.1.15,2013-08-31 13:30:00,
2013-08-31 09:36:00,78.8,74.6,30.01,NW,321,1.0,2.0,87,0.00,,,0.01,Wunderground v.1.15,2013-08-31 13:36:00,
2013-08-31 09:42:00,79.5,74.9,30.01,NW,326,1.0,2.0,86,0.00,,,0.01,Wunderground v.1.15,2013-08-31 13:42:00,
2013-08-31 09:48:00,80.2,75.3,30.01,NNW,343,1.0,3.0,85,0.00,,,0.01,Wunderground v.1.15,2013-08-31 13:48:00,
2013-08-31 09:54:00,80.9,75.6,30.01,NNW,338,1.0,2.0,84,0.00,,,0.01,Wunderground v.1.15,2013-08-31 13:54:00,
2013-08-31 10:00:00,81.4,75.7,30.01,NNE,16,1.0,2.0,83,0.00,,,0.01,Wunderground v.1.15,2013-08-31 14:00:00,
2013-08-31 10:06:00,81.6,75.6,30.01,NNW,329,1.0,2.0,82,0.00,,,0.01,Wunderground v.1.15,2013-08-31 14:06:00,
2013-08-31 10:12:00,81.7,75.7,30.01,NE,55,1.0,2.0,82,0.00,,,0.01,Wunderground v.1.15,2013-08-31 14:12:00,
2013-08-31 10:18:00,81.8,74.6,30.01,NW,312,1.0,4.0,79,0.00,,,0.01,Wunderground v.1.15,2013-08-31 14:18:00,
2013-08-31 10:24:00,81.3,75.6,30.01,NNE,29,2.0,4.0,83,0.00,,,0.01,Wunderground v.1.15,2013-08-31 14:24:00,
2013-08-31 10:30:00,81.3,74.9,30.01,NNW,341,1.0,2.0,81,0.00,,,0.01,Wunderground v.1.15,2013-08-31 14:30:00,
2013-08-31 10:36:00,81.4,75.0,30.01,NNW,335,1.0,2.0,81,0.00,,,0.01,Wunderground v.1.15,2013-08-31 14:36:00,
2013-08-31 10:42:00,81.8,75.8,30.01,NNW,339,1.0,2.0,82,0.00,,,0.01,Wunderground v.1.15,2013-08-31 14:42:00,
2013-08-31 10:48:00,82.5,75.3,30.02,North,6,1.0,2.0,79,0.00,,,0.01,Wunderground v.1.15,2013-08-31 14:48:00,
2013-08-31 10:54:00,82.8,75.6,30.01,NW,317,2.0,5.0,79,0.00,,,0.01,Wunderground v.1.15,2013-08-31 14:54:00,
2013-08-31 11:00:00,83.2,76.0,30.01,West,276,2.0,2.0,79,0.00,,,0.01,Wunderground v.1.15,2013-08-31 15:00:00,
2013-08-31 11:06:00,83.2,75.6,30.01,NW,320,2.0,3.0,78,0.00,,,0.01,Wunderground v.1.15,2013-08-31 15:06:00,
2013-08-31 11:12:00,82.4,74.5,30.01,NNW,328,2.0,2.0,77,0.00,,,0.01,Wunderground v.1.15,2013-08-31 15:12:00,
2013-08-31 11:18:00,82.1,74.9,30.01,WNW,286,1.0,3.0,79,0.00,,,0.01,Wunderground v.1.15,2013-08-31 15:18:00,
2013-08-31 11:24:00,83.0,76.6,30.01,NNE,25,1.0,2.0,81,0.00,,,0.01,Wunderground v.1.15,2013-08-31 15:24:00,
2013-08-31 11:30:00,84.3,75.5,30.01,WNW,302,1.0,2.0,75,0.00,,,0.01,Wunderground v.1.15,2013-08-31 15:30:00,
2013-08-31 11:36:00,84.1,74.5,30.00,NNW,330,2.0,3.0,73,0.00,,,0.01,Wunderground v.1.15,2013-08-31 15:36:00,
2013-08-31 11:42:00,83.6,74.8,30.00,NNE,19,1.0,2.0,75,0.00,,,0.01,Wunderground v.1.15,2013-08-31 15:42:00,
2013-08-31 11:48:00,83.6,75.2,30.00,NNW,339,1.0,2.0,76,0.00,,,0.01,Wunderground v.1.15,2013-08-31 15:48:00,
2013-08-31 11:54:00,84.0,75.2,30.00,NW,321,1.0,4.0,75,0.00,,,0.01,Wunderground v.1.15,2013-08-31 15:54:00,
2013-08-31 12:00:00,83.9,75.1,30.00,NE,36,1.0,2.0,75,0.00,,,0.01,Wunderground v.1.15,2013-08-31 16:00:00,
2013-08-31 12:06:00,83.8,75.0,30.00,NW,310,1.0,2.0,75,0.00,,,0.01,Wunderground v.1.15,2013-08-31 16:06:00,
2013-08-31 12:12:00,84.1,75.3,30.00,NNW,334,1.0,3.0,75,0.00,,,0.01,Wunderground v.1.15,2013-08-31 16:12:00,
2013-08-31 12:18:00,84.3,74.7,29.99,NW,319,2.0,3.0,73,0.00,,,0.01,Wunderground v.1.15,2013-08-31 16:18:00,
2013-08-31 12:24:00,85.1,76.3,29.99,West,272,2.0,3.0,75,0.00,,,0.01,Wunderground v.1.15,2013-08-31 16:24:00,
2013-08-31 12:30:00,85.4,77.0,29.99,NE,39,2.0,2.0,76,0.00,,,0.01,Wunderground v.1.15,2013-08-31 16:30:00,
2013-08-31 12:36:00,85.8,75.3,29.99,NNE,23,2.0,2.0,71,0.00,,,0.01,Wunderground v.1.15,2013-08-31 16:36:00,
2013-08-31 12:42:00,85.7,75.2,29.99,WSW,237,2.0,3.0,71,0.00,,,0.01,Wunderground v.1.15,2013-08-31 16:42:00,
2013-08-31 12:48:00,85.9,75.4,29.99,NW,312,2.0,3.0,71,0.00,,,0.01,Wunderground v.1.15,2013-08-31 16:48:00,
2013-08-31 12:54:00,86.5,76.0,29.99,NNE,30,2.0,2.0,71,0.00,,,0.01,Wunderground v.1.15,2013-08-31 16:54:00,
2013-08-31 13:00:00,86.4,74.6,29.98,NE,45,1.0,2.0,68,0.00,,,0.01,Wunderground v.1.15,2013-08-31 17:00:00,
2013-08-31 13:06:00,86.5,75.5,29.98,WNW,285,1.0,2.0,70,0.00,,,0.01,Wunderground v.1.15,2013-08-31 17:06:00,
2013-08-31 13:12:00,87.0,76.0,29.98,West,268,2.0,4.0,70,0.00,,,0.01,Wunderground v.1.15,2013-08-31 17:12:00,
2013-08-31 13:18:00,87.0,76.0,29.98,North,4,3.0,6.0,70,0.00,,,0.01,Wunderground v.1.15,2013-08-31 17:18:00,
2013-08-31 13:24:00,87.5,76.1,29.98,North,355,2.0,3.0,69,0.00,,,0.01,Wunderground v.1.15,2013-08-31 17:24:00,
2013-08-31 13:30:00,87.7,76.3,29.98,NW,321,2.0,2.0,69,0.00,,,0.01,Wunderground v.1.15,2013-08-31 17:30:00,
2013-08-31 13:36:00,87.8,76.4,29.97,WNW,291,2.0,3.0,69,0.00,,,0.01,Wunderground v.1.15,2013-08-31 17:36:00,
2013-08-31 13:42:00,87.7,75.8,29.97,North,357,2.0,3.0,68,0.00,,,0.01,Wunderground v.1.15,2013-08-31 17:42:00,
2013-08-31 13:48:00,87.8,76.8,29.97,WSW,252,2.0,4.0,70,0.00,,,0.01,Wunderground v.1.15,2013-08-31 17:48:00,
2013-08-31 13:54:00,87.6,74.8,29.97,WNW,288,2.0,4.0,66,0.00,,,0.01,Wunderground v.1.15,2013-08-31 17:54:00,
2013-08-31 14:00:00,87.5,75.6,29.96,NW,313,2.0,2.0,68,0.00,,,0.01,Wunderground v.1.15,2013-08-31 18:00:00,
2013-08-31 14:06:00,87.8,75.9,29.96,NNE,22,2.0,4.0,68,0.00,,,0.01,Wunderground v.1.15,2013-08-31 18:06:00,
2013-08-31 14:12:00,87.4,75.1,29.96,NNE,14,2.0,2.0,67,0.00,,,0.01,Wunderground v.1.15,2013-08-31 18:12:00,
2013-08-31 14:18:00,87.0,76.5,29.96,NW,312,1.0,2.0,71,0.00,,,0.01,Wunderground v.1.15,2013-08-31 18:18:00,
2013-08-31 14:24:00,87.3,76.7,29.96,NNW,347,1.0,2.0,71,0.00,,,0.01,Wunderground v.1.15,2013-08-31 18:24:00,
2013-08-31 14:30:00,87.3,75.0,29.95,North,7,2.0,2.0,67,0.00,,,0.01,Wunderground v.1.15,2013-08-31 18:30:00,
2013-08-31 14:36:00,87.1,75.7,29.95,WNW,283,1.0,3.0,69,0.00,,,0.01,Wunderground v.1.15,2013-08-31 18:36:00,
2013-08-31 14:42:00,86.9,75.1,29.95,NNW,336,1.0,2.0,68,0.00,,,0.01,Wunderground v.1.15,2013-08-31 18:42:00,
2013-08-31 14:48:00,86.5,74.7,29.95,WNW,289,2.0,3.0,68,0.00,,,0.01,Wunderground v.1.15,2013-08-31 18:48:00,
2013-08-31 14:54:00,87.2,76.6,29.94,NNW,331,2.0,4.0,71,0.00,,,0.01,Wunderground v.1.15,2013-08-31 18:54:00,
2013-08-31 15:00:00,87.6,75.7,29.94,WNW,300,2.0,2.0,68,0.00,,,0.01,Wunderground v.1.15,2013-08-31 19:00:00,
2013-08-31 15:06:00,87.2,75.3,29.94,West,279,2.0,4.0,68,0.00,,,0.01,Wunderground v.1.15,2013-08-31 19:06:00,
2013-08-31 15:12:00,87.2,75.3,29.94,NNW,331,3.0,3.0,68,0.00,,,0.01,Wunderground v.1.15,2013-08-31 19:12:00,
2013-08-31 15:18:00,87.7,77.1,29.93,North,6,3.0,3.0,71,0.00,,,0.01,Wunderground v.1.15,2013-08-31 19:18:00,
2013-08-31 15:24:00,86.8,75.0,29.94,West,266,3.0,4.0,68,0.00,,,0.01,Wunderground v.1.15,2013-08-31 19:24:00,
2013-08-31 15:30:00,85.7,75.6,29.93,NNW,346,3.0,3.0,72,0.00,,,0.01,Wunderground v.1.15,2013-08-31 19:30:00,
2013-08-31 15:36:00,86.1,76.4,29.93,NNW,337,3.0,3.0,73,0.00,,,0.01,Wunderground v.1.15,2013-08-31 19:36:00,
2013-08-31 15:42:00,86.7,74.9,29.93,NW,321,3.0,4.0,68,0.00,,,0.01,Wunderground v.1.15,2013-08-31 19:42:00,
2013-08-31 15:48:00,86.9,75.5,29.93,North,356,3.0,7.0,69,0.00,,,0.01,Wunderground v.1.15,2013-08-31 19:48:00,
2013-08-31 15:54:00,87.1,74.4,29.93,NW,306,2.0,3.0,66,0.00,,,0.01,Wunderground v.1.15,2013-08-31 19:54:00,
2013-08-31 16:00:00,87.5,75.6,29.93,NNE,31,2.0,4.0,68,0.00,,,0.01,Wunderground v.1.15,2013-08-31 20:00:00,
2013-08-31 16:06:00,87.4,75.5,29.93,West,272,2.0,4.0,68,0.00,,,0.01,Wunderground v.1.15,2013-08-31 20:06:00,
2013-08-31 16:12:00,87.3,76.3,29.92,North,2,2.0,3.0,70,0.00,,,0.01,Wunderground v.1.15,2013-08-31 20:12:00,
2013-08-31 16:18:00,87.4,76.4,29.92,NW,312,2.0,3.0,70,0.00,,,0.01,Wunderground v.1.15,2013-08-31 20:18:00,
2013-08-31 16:24:00,86.8,75.4,29.93,NNW,348,3.0,3.0,69,0.00,,,0.01,Wunderground v.1.15,2013-08-31 20:24:00,
2013-08-31 16:30:00,86.5,75.5,29.93,WNW,289,3.0,3.0,70,0.00,,,0.01,Wunderground v.1.15,2013-08-31 20:30:00,
2013-08-31 16:36:00,86.4,75.5,29.93,NW,308,3.0,7.0,70,0.00,,,0.01,Wunderground v.1.15,2013-08-31 20:36:00,
2013-08-31 16:42:00,86.5,75.1,29.93,West,276,3.0,3.0,69,0.00,,,0.01,Wunderground v.1.15,2013-08-31 20:42:00,
2013-08-31 16:48:00,86.4,75.9,29.93,WNW,289,3.0,6.0,71,0.00,,,0.01,Wunderground v.1.15,2013-08-31 20:48:00,
2013-08-31 16:54:00,86.3,75.4,29.93,West,260,3.0,5.0,70,0.00,,,0.01,Wunderground v.1.15,2013-08-31 20:54:00,
2013-08-31 17:00:00,86.6,76.1,29.93,WNW,287,2.0,2.0,71,0.00,,,0.01,Wunderground v.1.15,2013-08-31 21:00:00,
2013-08-31 17:06:00,86.7,75.7,29.93,NE,37,2.0,8.0,70,0.00,,,0.01,Wunderground v.1.15,2013-08-31 21:06:00,
2013-08-31 17:12:00,86.6,75.2,29.93,West,266,2.0,2.0,69,0.00,,,0.01,Wunderground v.1.15,2013-08-31 21:12:00,
2013-08-31 17:18:00,86.6,75.6,29.93,NW,318,2.0,2.0,70,0.00,,,0.01,Wunderground v.1.15,2013-08-31 21:18:00,
2013-08-31 17:24:00,86.6,74.8,29.93,NW,326,2.0,3.0,68,0.00,,,0.01,Wunderground v.1.15,2013-08-31 21:24:00,
2013-08-31 17:30:00,86.3,74.5,29.92,WNW,293,2.0,3.0,68,0.00,,,0.01,Wunderground v.1.15,2013-08-31 21:30:00,
2013-08-31 17:36:00,85.9,73.7,29.92,WNW,301,3.0,3.0,67,0.00,,,0.01,Wunderground v.1.15,2013-08-31 21:36:00,
2013-08-31 17:42:00,85.4,74.5,29.93,West,270,2.0,3.0,70,0.00,,,0.01,Wunderground v.1.15,2013-08-31 21:42:00,
2013-08-31 17:48:00,84.9,74.4,29.93,North,4,1.0,3.0,71,0.00,,,0.01,Wunderground v.1.15,2013-08-31 21:48:00,
2013-08-31 17:54:00,84.5,74.1,29.93,NW,322,1.0,2.0,71,0.00,,,0.01,Wunderground v.1.15,2013-08-31 21:54:00,
2013-08-31 18:00:00,84.0,74.0,29.93,North,349,1.0,1.0,72,0.00,,,0.01,Wunderground v.1.15,2013-08-31 22:00:00,
2013-08-31 18:06:00,83.7,74.1,29.93,NNE,27,0.0,2.0,73,0.00,,,0.01,Wunderground v.1.15,2013-08-31 22:06:00,
2013-08-31 18:12:00,83.3,73.3,29.92,NNW,335,1.0,2.0,72,0.00,,,0.01,Wunderground v.1.15,2013-08-31 22:12:00,
2013-08-31 18:18:00,83.0,72.6,29.91,NW,320,1.0,4.0,71,0.00,,,0.01,Wunderground v.1.15,2013-08-31 22:18:00,
2013-08-31 18:24:00,82.7,72.7,29.91,WNW,293,1.0,2.0,72,0.00,,,0.01,Wunderground v.1.15,2013-08-31 22:24:00,
2013-08-31 18:30:00,82.5,73.0,29.90,NNW,335,1.0,1.0,73,0.00,,,0.01,Wunderground v.1.15,2013-08-31 22:30:00,
2013-08-31 18:36:00,82.2,73.1,29.90,NNW,340,1.0,2.0,74,0.00,,,0.01,Wunderground v.1.15,2013-08-31 22:36:00,
2013-08-31 18:42:00,82.0,73.3,29.90,NW,306,1.0,2.0,75,0.00,,,0.01,Wunderground v.1.15,2013-08-31 22:42:00,
2013-08-31 18:48:00,81.8,73.1,29.90,West,281,1.0,2.0,75,0.00,,,0.01,Wunderground v.1.15,2013-08-31 22:48:00,
2013-08-31 18:54:00,81.6,72.9,29.90,NW,320,1.0,2.0,75,0.00,,,0.01,Wunderground v.1.15,2013-08-31 22:54:00,
2013-08-31 19:00:00,81.4,72.7,29.90,WNW,292,1.0,2.0,75,0.00,,,0.01,Wunderground v.1.15,2013-08-31 23:00:00,
2013-08-31 19:06:00,81.3,73.0,29.90,WNW,300,1.0,2.0,76,0.00,,,0.01,Wunderground v.1.15,2013-08-31 23:06:00,
2013-08-31 19:12:00,81.1,73.2,29.90,WNW,300,0.0,2.0,77,0.00,,,0.01,Wunderground v.1.15,2013-08-31 23:12:00,
2013-08-31 19:18:00,80.9,73.0,29.90,West,274,0.0,2.0,77,0.00,,,0.01,Wunderground v.1.15,2013-08-31 23:18:00,
2013-08-31 19:24:00,80.7,73.2,29.90,WNW,291,1.0,2.0,78,0.00,,,0.01,Wunderground v.1.15,2013-08-31 23:24:00,
2013-08-31 19:30:00,80.6,73.5,29.91,WNW,291,1.0,1.0,79,0.00,,,0.01,Wunderground v.1.15,2013-08-31 23:30:00,
2013-08-31 19:36:00,80.5,73.8,29.92,WNW,291,0.0,2.0,80,0.00,,,0.01,Wunderground v.1.15,2013-08-31 23:36:00,
2013-08-31 19:42:00,80.3,73.6,29.93,WNW,291,0.0,2.0,80,0.00,,,0.01,Wunderground v.1.15,2013-08-31 23:42:00,
2013-08-31 19:48:00,80.3,73.6,29.93,SSE,164,0.0,2.0,80,0.00,,,0.01,Wunderground v.1.15,2013-08-31 23:48:00,
2013-08-31 19:54:00,80.2,73.8,29.92,South,174,0.0,2.0,81,0.00,,,0.01,Wunderground v.1.15,2013-08-31 23:54:00,
2013-08-31 20:00:00,80.0,73.6,29.93,South,174,0.0,2.0,81,0.00,,,0.01,Wunderground v.1.15,2013-09-01 00:00:00,
2013-08-31 20:06:00,79.6,74.0,29.93,South,174,0.0,2.0,83,0.00,,,0.01,Wunderground v.1.15,2013-09-01 00:06:00,
2013-08-31 20:12:00,79.2,73.6,29.93,South,174,0.0,2.0,83,0.00,,,0.01,Wunderground v.1.15,2013-09-01 00:12:00,
2013-08-31 20:18:00,78.8,73.6,29.93,South,174,0.0,2.0,84,0.00,,,0.01,Wunderground v.1.15,2013-09-01 00:18:00,
2013-08-31 20:24:00,78.4,73.5,29.94,South,174,0.0,2.0,85,0.00,,,0.01,Wunderground v.1.15,2013-09-01 00:24:00,
2013-08-31 20:30:00,78.2,73.3,29.93,South,174,0.0,2.0,85,0.00,,,0.01,Wunderground v.1.15,2013-09-01 00:30:00,
2013-08-31 20:36:00,77.8,73.3,29.94,South,174,0.0,2.0,86,0.00,,,0.01,Wunderground v.1.15,2013-09-01 00:36:00,
2013-08-31 20:42:00,77.6,73.4,29.95,South,174,0.0,2.0,87,0.00,,,0.01,Wunderground v.1.15,2013-09-01 00:42:00,
2013-08-31 20:48:00,77.4,73.2,29.95,South,174,0.0,2.0,87,0.00,,,0.01,Wunderground v.1.15,2013-09-01 00:48:00,
2013-08-31 20:54:00,77.3,73.5,29.95,South,174,0.0,2.0,88,0.00,,,0.01,Wunderground v.1.15,2013-09-01 00:54:00,
2013-08-31 21:00:00,77.2,73.4,29.96,SE,146,0.0,2.0,88,0.00,,,0.01,Wunderground v.1.15,2013-09-01 01:00:00,
2013-08-31 21:06:00,77.2,73.7,29.96,ENE,76,0.0,2.0,89,0.00,,,0.01,Wunderground v.1.15,2013-09-01 01:06:00,
2013-08-31 21:12:00,77.0,73.5,29.96,ENE,64,1.0,2.0,89,0.00,,,0.01,Wunderground v.1.15,2013-09-01 01:12:00,
2013-08-31 21:18:00,76.8,73.3,29.96,ENE,64,0.0,2.0,89,0.00,,,0.01,Wunderground v.1.15,2013-09-01 01:18:00,
2013-08-31 21:24:00,76.6,73.1,29.96,ENE,64,0.0,2.0,89,0.00,,,0.01,Wunderground v.1.15,2013-09-01 01:24:00,
2013-08-31 21:30:00,76.4,72.9,29.96,ENE,64,0.0,2.0,89,0.00,,,0.01,Wunderground v.1.15,2013-09-01 01:30:00,
2013-08-31 21:36:00,76.3,72.8,29.96,ENE,64,0.0,2.0,89,0.00,,,0.01,Wunderground v.1.15,2013-09-01 01:36:00,
2013-08-31 21:42:00,76.1,72.6,29.96,ENE,64,0.0,2.0,89,0.00,,,0.01,Wunderground v.1.15,2013-09-01 01:42:00,
2013-08-31 21:48:00,75.8,72.3,29.97,ENE,64,0.0,2.0,89,0.00,,,0.01,Wunderground v.1.15,2013-09-01 01:48:00,
2013-08-31 21:54:00,75.7,72.2,29.96,ENE,64,0.0,2.0,89,0.00,,,0.01,Wunderground v.1.15,2013-09-01 01:54:00,
2013-08-31 22:00:00,75.5,72.0,29.97,ENE,64,0.0,2.0,89,0.00,,,0.01,Wunderground v.1.15,2013-09-01 02:00:00,
2013-08-31 22:06:00,75.3,71.8,29.97,ENE,64,0.0,2.0,89,0.00,,,0.01,Wunderground v.1.15,2013-09-01 02:06:00,
2013-08-31 22:12:00,75.1,71.6,29.97,ENE,64,0.0,2.0,89,0.00,,,0.01,Wunderground v.1.15,2013-09-01 02:12:00,
2013-08-31 22:18:00,74.9,71.4,29.97,ENE,64,0.0,2.0,89,0.00,,,0.01,Wunderground v.1.15,2013-09-01 02:18:00,
2013-08-31 22:24:00,74.8,71.7,29.97,ENE,64,0.0,2.0,90,0.00,,,0.01,Wunderground v.1.15,2013-09-01 02:24:00,
2013-08-31 22:30:00,74.6,71.5,29.96,ENE,64,0.0,2.0,90,0.00,,,0.01,Wunderground v.1.15,2013-09-01 02:30:00,
2013-08-31 22:36:00,74.5,71.4,29.96,ENE,64,0.0,2.0,90,0.00,,,0.01,Wunderground v.1.15,2013-09-01 02:36:00,
2013-08-31 22:42:00,74.3,71.2,29.96,ENE,64,0.0,2.0,90,0.00,,,0.01,Wunderground v.1.15,2013-09-01 02:42:00,
2013-08-31 22:48:00,74.0,70.9,29.96,ENE,64,0.0,2.0,90,0.00,,,0.01,Wunderground v.1.15,2013-09-01 02:48:00,
2013-08-31 22:54:00,73.8,70.7,29.95,ENE,64,0.0,2.0,90,0.00,,,0.01,Wunderground v.1.15,2013-09-01 02:54:00,
2013-08-31 23:00:00,73.7,70.9,29.95,ENE,64,0.0,2.0,91,0.00,,,0.01,Wunderground v.1.15,2013-09-01 03:00:00,
2013-08-31 23:06:00,73.5,70.7,29.95,ENE,64,0.0,2.0,91,0.00,,,0.01,Wunderground v.1.15,2013-09-01 03:06:00,
2013-08-31 23:12:00,73.3,70.5,29.95,ENE,64,0.0,2.0,91,0.00,,,0.01,Wunderground v.1.15,2013-09-01 03:12:00,
2013-08-31 23:18:00,73.2,70.4,29.95,ENE,64,0.0,2.0,91,0.00,,,0.01,Wunderground v.1.15,2013-09-01 03:18:00,
2013-08-31 23:24:00,73.0,70.2,29.95,ENE,64,0.0,2.0,91,0.00,,,0.01,Wunderground v.1.15,2013-09-01 03:24:00,
2013-08-31 23:30:00,72.8,70.3,29.95,ENE,64,0.0,2.0,92,0.00,,,0.01,Wunderground v.1.15,2013-09-01 03:30:00,
2013-08-31 23:36:00,72.7,70.2,29.95,ENE,64,0.0,2.0,92,0.00,,,0.01,Wunderground v.1.15,2013-09-01 03:36:00,
2013-08-31 23:42:00,72.5,69.7,29.94,ENE,64,0.0,2.0,91,0.00,,,0.01,Wunderground v.1.15,2013-09-01 03:42:00,
2013-08-31 23:48:00,72.4,69.9,29.94,ENE,64,0.0,2.0,92,0.00,,,0.01,Wunderground v.1.15,2013-09-01 03:48:00,
2013-08-31 23:54:00,72.3,69.8,29.94,ENE,64,0.0,2.0,92,0.00,,,0.01,Wunderground v.1.15,2013-09-01 03:54:00,